Latest Weather Observations for Blackall

IDQ60801

Issued at 4:02 pm EST Tuesday 28 March 2017 (issued every 30 minutes, with the page automatically refreshed every 10 minutes)

About weather observations | Map of weather stations | Latest weather observations for QLD | Other Formats
Station Details ID: 036034 Name: BLACKALL AIRPORT Lat: -24.43 Lon: 145.43 Height: 281.3 m
Data from the previous 72 hours. | See also: Recent months at Blackall
Date/Time
EST
Temp
°C
App
Temp
°C
Dew
Point
°C
Rel
Hum
%
Delta-T
°C
Wind Press
QNH
hPa
Press
MSL
hPa
Rain since
9am
mm
Dir  Spd
km/h
Gust
km/h
Spd
kts
Gust
kts
28/03:30pm 36.2 33.0 11.8 23 14.8 SE 20 35 11 19 1006.3 1004.5 0.0
28/03:00pm 35.8 32.3 12.1 24 14.4 ESE 22 32 12 17 1006.3 1004.5 0.0
28/02:30pm 35.8 32.3 12.1 24 14.3 SE 22 35 12 19 1006.5 1004.7 0.0
28/02:00pm 36.8 32.4 11.6 22 15.2 SE 26 39 14 21 1006.8 1004.9 0.0
28/01:30pm 35.9 33.0 12.8 25 14.1 SE 20 33 11 18 1007.3 1005.5 0.0
28/01:00pm 35.3 31.1 12.3 25 14.0 ESE 26 37 14 20 1007.8 1006.0 0.0
28/12:30pm 34.7 31.1 13.0 27 13.3 SE 24 35 13 19 1008.4 1006.6 0.0
28/12:00pm 35.6 31.8 13.7 27 13.6 ESE 26 43 14 23 1008.9 1007.1 0.0
28/11:41am 34.4 30.3 13.8 29 12.7 SE 28 46 15 25 1009.2 1007.4 0.0
28/11:30am 35.1 31.4 13.9 28 13.1 SE 26 43 14 23 1009.4 1007.6 0.0
28/11:00am 35.3 32.8 15.1 30 12.8 ESE 22 35 12 19 1009.7 1007.9 0.0
28/10:30am 33.6 31.6 15.6 34 11.4 SE 20 33 11 18 1010.1 1008.4 0.0
28/10:00am 32.0 30.5 16.3 39 10.0 E 19 28 10 15 1010.5 1008.7 0.0
28/09:30am 30.5 29.1 16.5 43 8.9 ESE 19 26 10 14 1010.7 1008.9 0.0
28/09:00am 29.4 28.4 16.6 46 8.1 SE 17 26 9 14 1010.9 1009.1 0.0
28/08:30am 27.6 28.2 16.9 52 6.8 SE 9 13 5 7 1011.1 1009.3 0.0
28/08:00am 25.5 25.9 16.4 57 5.7 SE 9 11 5 6 1011.1 1009.3 0.0
28/07:30am 23.9 24.2 15.9 61 4.9 ESE 9 11 5 6 1011.0 1009.2 0.0
28/07:00am 23.4 23.7 16.0 63 4.5 E 9 13 5 7 1010.6 1008.8 0.0
28/06:30am 22.4 22.0 15.3 64 4.3 ESE 11 11 6 6 1010.2 1008.5 0.0
28/06:00am 22.3 22.0 15.4 65 4.2 ESE 11 11 6 6 1009.6 1007.8 0.0
28/05:30am 22.1 21.9 14.7 63 4.4 SE 9 11 5 6 1009.4 1007.6 0.0
28/05:00am 22.9 22.8 15.0 61 4.8 SSE 9 11 5 6 1009.1 1007.3 0.0
28/04:30am 22.5 22.2 14.4 60 4.8 SSE 9 11 5 6 1008.9 1007.1 0.0
28/04:00am 23.4 23.5 14.4 57 5.4 SE 7 9 4 5 1008.8 1007.0 0.0
28/03:30am 23.6 23.3 14.3 56 5.5 SE 9 11 5 6 1008.7 1006.9 0.0
28/03:00am 24.0 24.1 14.4 55 5.8 SE 7 9 4 5 1008.7 1006.9 0.0
28/02:30am 23.9 23.6 14.3 55 5.7 SSE 9 13 5 7 1008.9 1007.1 0.0
28/02:00am 24.6 24.4 14.7 54 6.0 SSE 9 11 5 6 1009.2 1007.4 0.0
28/01:30am 25.2 25.5 14.9 52 6.2 SSE 7 9 4 5 1009.4 1007.6 0.0
28/01:00am 25.4 25.4 15.1 53 6.3 SE 9 9 5 5 1009.8 1008.0 0.0
28/12:30am 25.8 26.2 15.2 52 6.5 SE 7 9 4 5 1010.2 1008.5 0.0
28/12:00am 26.5 26.9 15.2 49 6.9 SSE 7 9 4 5 1010.3 1008.6 0.0
 
Date/Time
EST
Temp
°C
App
Temp
°C
Dew
Point
°C
Rel
Hum
%
Delta-T
°C
Wind Press
QNH
hPa
Press
MSL
hPa
Rain since
9am
mm
Dir  Spd
km/h
Gust
km/h
Spd
kts
Gust
kts
27/11:30pm 27.2 26.8 15.2 47 7.4 ESE 11 13 6 7 1010.5 1008.7 0.0
27/11:00pm 28.0 27.6 15.3 46 7.8 E 11 15 6 8 1010.8 1009.0 0.0
27/10:30pm 28.3 28.2 14.9 44 8.2 E 9 13 5 7 1010.9 1009.1 0.0
27/10:00pm 29.7 28.5 15.0 40 9.1 ENE 15 20 8 11 1010.8 1009.0 0.0
27/09:30pm 30.2 29.5 14.3 38 9.7 E 11 15 6 8 1010.8 1009.0 0.0
27/09:00pm 31.3 30.0 13.6 34 10.8 E 13 17 7 9 1010.3 1008.6 0.0
27/08:30pm 31.4 30.0 12.2 30 11.4 ESE 11 15 6 8 1010.0 1008.3 0.0
27/08:00pm 31.5 30.4 11.8 30 11.7 SE 9 13 5 7 1009.5 1007.7 0.0
27/07:30pm 32.7 31.2 11.8 28 12.4 SE 11 15 6 8 1009.1 1007.3 0.0
27/07:00pm 34.3 31.7 12.0 25 13.4 SSE 17 22 9 12 1008.9 1007.1 0.0
27/06:30pm 35.2 31.9 11.6 24 14.1 SSE 20 26 11 14 1008.5 1006.7 0.0
27/06:00pm 35.7 32.5 12.0 24 14.3 SE 20 30 11 16 1008.1 1006.3 0.0
27/05:30pm 36.5 32.6 12.0 23 14.8 SE 24 35 13 19 1007.9 1006.1 0.0
27/05:00pm 36.6 32.1 11.4 22 15.2 SE 26 35 14 19 1007.8 1006.0 0.0
27/04:30pm 36.5 32.6 12.0 23 14.8 SE 24 33 13 18 1007.7 1005.9 0.0
27/04:00pm 37.2 33.2 11.9 22 15.4 SE 24 41 13 22 1007.7 1005.9 0.0
27/03:30pm 36.7 33.2 12.2 23 14.9 SE 22 33 12 18 1008.0 1006.2 0.0
27/03:00pm 36.9 32.7 12.4 23 15.0 SE 26 43 14 23 1008.3 1006.5 0.0
27/02:30pm 38.4 35.5 12.9 22 15.8 SSE 20 32 11 17 1008.4 1006.6 0.0
27/02:00pm 37.5 34.0 13.5 24 14.9 SE 24 37 13 20 1008.7 1006.9 0.0
27/01:30pm 36.8 35.5 14.7 26 13.9 SE 15 24 8 13 1009.3 1007.5 0.0
27/01:00pm 36.9 33.7 14.2 25 14.2 E 24 37 13 20 1010.0 1008.3 0.0
27/12:30pm 36.5 33.8 14.5 27 13.8 SE 22 33 12 18 1010.9 1009.1 0.0
27/12:00pm 35.9 34.9 14.5 27 13.4 SSE 13 32 7 17 1011.6 1009.8 0.0
27/11:30am 34.1 33.1 14.6 31 12.2 E 13 22 7 12 1012.2 1010.4 0.0
27/11:00am 33.6 33.2 15.1 33 11.6 E 11 22 6 12 1012.9 1011.1 0.0
27/10:30am 33.0 31.6 15.5 35 11.0 E 17 24 9 13 1013.1 1011.3 0.0
27/10:00am 31.3 30.6 15.3 38 10.0 ESE 13 20 7 11 1013.4 1011.7 0.0
27/09:30am 30.8 30.0 16.0 40 9.3 ESE 15 20 8 11 1013.7 1012.0 0.0
27/09:00am 29.1 29.0 17.0 48 7.7 E 13 20 7 11 1013.8 1012.1 0.0
27/08:30am 27.1 28.8 18.1 58 5.8 SE 6 11 3 6 1013.9 1012.2 0.0
27/08:00am 25.1 26.6 18.1 65 4.5 S 7 9 4 5 1013.7 1012.0 0.0
27/07:30am 23.0 24.5 17.5 71 3.4 SW 6 7 3 4 1013.6 1011.9 0.0
27/07:00am 21.6 22.6 16.8 74 3.0 SW 7 9 4 5 1013.1 1011.3 0.0
27/06:30am 20.7 22.1 16.3 76 2.7 SSW 4 9 2 5 1012.8 1011.0 0.0
27/06:00am 20.9 21.6 16.1 74 2.9 SW 7 9 4 5 1012.5 1010.7 0.0
27/05:30am 20.9 22.9 16.1 74 2.9 CALM 0 0 0 0 1012.2 1010.4 0.0
27/05:00am 21.2 23.3 16.2 73 3.1 CALM 0 0 0 0 1011.8 1010.0 0.0
27/04:30am 21.5 22.4 16.0 71 3.3 SSE 6 7 3 4 1011.5 1009.7 0.0
27/04:00am 21.9 22.6 16.0 69 3.6 ESE 7 7 4 4 1011.5 1009.7 0.0
27/03:30am 21.9 23.9 16.0 69 3.6 CALM 0 0 0 0 1011.4 1009.6 0.0
27/03:00am 22.6 23.6 16.4 68 3.8 ENE 6 7 3 4 1011.5 1009.7 0.0
27/02:30am 22.9 24.8 15.7 64 4.4 CALM 0 6 0 3 1011.7 1009.9 0.0
27/02:00am 23.7 24.3 15.7 61 4.9 NE 7 9 4 5 1011.8 1010.0 0.0
27/01:30am 24.2 24.5 15.9 59 5.1 ENE 9 11 5 6 1011.9 1010.1 0.0
27/01:00am 24.2 24.4 15.7 59 5.2 ENE 9 9 5 5 1012.2 1010.4 0.0
27/12:30am 24.4 24.0 15.3 57 5.5 NE 11 13 6 7 1012.3 1010.5 0.0
27/12:00am 25.0 25.3 15.0 53 6.1 ENE 7 9 4 5 1012.6 1010.8 0.0
 
Date/Time
EST
Temp
°C
App
Temp
°C
Dew
Point
°C
Rel
Hum
%
Delta-T
°C
Wind Press
QNH
hPa
Press
MSL
hPa
Rain since
9am
mm
Dir  Spd
km/h
Gust
km/h
Spd
kts
Gust
kts
26/11:30pm 25.3 25.4 14.4 50 6.6 E 7 9 4 5 1012.7 1010.9 0.0
26/11:00pm 26.2 26.0 14.6 48 7.0 E 9 13 5 7 1012.8 1011.0 0.0
26/10:30pm 26.5 25.9 13.6 45 7.7 ESE 9 11 5 6 1012.9 1011.1 0.0
26/10:00pm 27.1 26.1 13.4 42 8.2 ESE 11 13 6 7 1012.6 1010.8 0.0
26/09:30pm 27.8 27.0 14.1 43 8.3 E 11 13 6 7 1012.3 1010.5 0.0
26/09:00pm 28.3 27.4 12.6 38 9.3 ENE 9 11 5 6 1011.9 1010.1 0.0
26/08:30pm 28.8 27.5 11.4 34 10.1 E 9 11 5 6 1011.6 1009.8 0.0
26/08:00pm 31.0 28.7 10.4 28 11.9 ENE 13 17 7 9 1011.2 1009.4 0.0
26/07:30pm 31.3 29.3 10.1 27 12.2 E 11 13 6 7 1010.6 1008.8 0.0
26/07:00pm 33.1 30.6 9.8 24 13.5 E 13 17 7 9 1010.0 1008.3 0.0
26/06:30pm 34.6 31.4 9.8 22 14.4 ESE 17 24 9 13 1009.6 1007.8 0.0
26/06:00pm 35.4 31.6 9.0 20 15.3 ESE 19 28 10 15 1009.2 1007.4 0.0
26/05:30pm 36.5 31.8 9.2 19 15.9 ESE 24 37 13 20 1008.9 1007.1 0.0
26/05:00pm 37.1 32.7 8.8 18 16.4 ESE 22 35 12 19 1008.6 1006.8 0.0
26/04:30pm 37.4 32.3 9.1 18 16.5 ESE 26 37 14 20 1008.6 1006.8 0.0
26/04:00pm 37.5 32.8 9.2 18 16.6 ESE 24 39 13 21 1008.6 1006.8 0.0
26/03:35pm 38.1 32.3 9.6 18 16.8 E 30 48 16 26 1008.9 1007.1 0.0
26/03:30pm 38.0 31.9 9.6 18 16.7 E 32 44 17 24 1008.7 1006.9 0.0
26/03:00pm 37.6 31.9 8.4 17 16.9 ESE 28 43 15 23 1009.3 1007.5 0.0
26/02:30pm 38.2 32.5 9.7 18 16.8 ESE 30 43 16 23 1009.7 1007.9 0.0
26/02:03pm 37.8 32.4 9.4 18 16.7 SE 28 46 15 25 1009.9 1008.1 0.0
26/02:00pm 37.5 33.0 10.0 19 16.3 SE 24 41 13 22 1010.0 1008.3 0.0
26/01:30pm 36.6 32.3 10.7 21 15.4 SE 24 35 13 19 1010.7 1008.9 0.0
26/01:00pm 36.6 33.7 12.8 24 14.6 ESE 20 32 11 17 1011.5 1009.7 0.0
26/12:30pm 35.3 32.8 13.5 27 13.4 ESE 19 28 10 15 1012.0 1010.2 0.0
26/12:00pm 34.4 33.1 14.8 30 12.3 SSE 15 20 8 11 1012.7 1010.9 0.0
26/11:30am 33.4 31.9 15.4 34 11.3 ESE 17 22 9 12 1013.3 1011.6 0.0
26/11:00am 33.1 32.4 16.5 37 10.6 ESE 15 20 8 11 1013.9 1012.2 0.0
26/10:30am 31.8 31.7 16.9 40 9.5 ESE 13 22 7 12 1014.5 1012.7 0.0
26/10:00am 30.8 30.4 17.1 43 8.8 E 15 22 8 12 1014.9 1013.1 0.0
26/09:30am 29.5 30.6 18.9 53 6.9 ESE 11 20 6 11 1015.2 1013.4 0.0
26/09:00am 28.5 29.2 18.9 56 6.3 ENE 13 19 7 10 1015.3 1013.5 0.0
26/08:30am 27.7 28.6 19.2 60 5.5 ENE 13 17 7 9 1015.3 1013.5 0.0
26/08:00am 26.7 27.5 19.1 63 4.9 E 13 17 7 9 1015.2 1013.4 0.0
26/07:30am 24.4 25.6 18.3 69 3.9 ESE 9 13 5 7 1014.8 1013.0 0.0
26/07:00am 22.1 23.4 17.5 75 2.9 SE 7 7 4 4 1014.4 1012.6 0.0
26/06:30am 21.3 22.5 17.3 78 2.5 ESE 7 9 4 5 1013.9 1012.2 0.0
26/06:00am 20.8 21.9 17.0 79 2.3 ESE 7 9 4 5 1013.6 1011.9 0.0
26/05:30am 21.4 22.5 17.2 77 2.6 SE 7 9 4 5 1013.5 1011.8 0.0
26/05:00am 21.2 23.2 17.0 77 2.6 ESE 2 9 1 5 1013.0 1011.2 0.0
26/04:30am 21.5 23.9 17.1 76 2.7 CALM 0 0 0 0 1012.7 1010.9 0.0
26/04:00am 21.8 22.9 17.0 74 3.0 S 7 7 4 4 1012.3 1010.5 0.0
26/03:30am 22.2 23.5 17.1 73 3.2 SSE 6 7 3 4 1012.2 1010.4 0.0
26/03:00am 22.7 24.0 17.2 71 3.4 SE 6 6 3 3 1012.1 1010.3 0.0
26/02:30am 23.1 24.4 17.1 69 3.7 SSE 6 7 3 4 1012.1 1010.3 0.0
26/02:00am 23.7 25.0 17.0 66 4.2 SE 6 7 3 4 1012.4 1010.6 0.0
26/01:30am 24.2 25.3 17.2 65 4.4 ESE 7 9 4 5 1012.4 1010.6 0.0
26/01:00am 24.8 26.2 17.3 63 4.7 E 6 7 3 4 1012.7 1010.9 0.0
26/12:30am 25.5 26.8 17.2 60 5.2 ENE 6 7 3 4 1013.0 1011.2 0.0
26/12:00am 26.4 26.7 16.9 56 6.0 ENE 11 13 6 7 1013.3 1011.6 0.0
 
Date/Time
EST
Temp
°C
App
Temp
°C
Dew
Point
°C
Rel
Hum
%
Delta-T
°C
Wind Press
QNH
hPa
Press
MSL
hPa
Rain since
9am
mm
Dir  Spd
km/h
Gust
km/h
Spd
kts
Gust
kts
25/11:30pm 26.8 26.7 17.0 55 6.2 ENE 13 17 7 9 1013.5 1011.8 0.0
25/11:00pm 27.4 27.3 17.0 53 6.6 ENE 13 17 7 9 1013.5 1011.8 0.0
25/10:30pm 28.2 27.8 17.1 51 7.0 ENE 15 20 8 11 1013.4 1011.7 0.0
25/10:00pm 28.7 28.2 16.9 48 7.5 ENE 15 22 8 12 1013.2 1011.5 0.0
25/09:30pm 29.0 28.1 16.9 48 7.7 NE 17 24 9 13 1012.9 1011.1 0.0
25/09:00pm 29.4 29.2 16.6 46 8.1 NE 13 19 7 10 1012.6 1010.8 0.0
25/08:30pm 30.0 29.1 16.8 45 8.4 NE 17 28 9 15 1012.1 1010.3 0.0
25/08:00pm 30.7 29.4 16.7 43 8.9 ENE 19 26 10 14 1011.6 1009.8 0.0
25/07:30pm 31.1 30.1 15.5 39 9.8 ENE 15 22 8 12 1011.1 1009.3 0.0
25/07:00pm 31.6 31.1 13.8 34 10.9 E 9 11 5 6 1010.7 1008.9 0.0
25/06:30pm 32.5 31.4 13.2 31 11.7 E 11 15 6 8 1010.3 1008.6 0.0
25/06:00pm 33.9 32.5 13.4 29 12.6 E 13 17 7 9 1010.1 1008.4 0.0
25/05:30pm 34.6 32.6 14.0 29 12.8 E 17 24 9 13 1009.7 1007.9 0.0
25/05:00pm 35.1 33.1 13.9 28 13.2 E 17 26 9 14 1009.6 1007.8 0.0
25/04:30pm 36.1 35.5 14.7 28 13.5 ESE 11 24 6 13 1009.5 1007.7 0.0

Other Formats:

Comma delimited format used in spreadsheet applications
http://www.bom.gov.au/fwo/IDQ60801/IDQ60801.95351.axf

JavaScript Object Notation format (JSON) in row-major order
http://www.bom.gov.au/fwo/IDQ60801/IDQ60801.95351.json